Time;durP1;ratioP1;P1;durP2;ratioP2;P2;SDS_P1;SDS_P2;PMS_P1;PMS_P2;Temp;Humidity;BMP_temperature;BMP_pressure;BME280_temperature;BME280_humidity;BME280_pressure;Samples;Min_cycle;Max_cycle;Signal;HPM_P1;HPM_P2
2023/10/21 00:00:51;;;;;;;13.75;4.18;;;24.00;64.90;;;;;;6223540;27;81225;-65
2023/10/21 00:03:52;;;;;;;11.65;3.75;;;23.90;65.00;;;;;;6224694;28;82371;-61
2023/10/21 00:06:52;;;;;;;18.40;4.72;;;23.90;65.00;;;;;;6224889;28;80631;-59
2023/10/21 00:09:53;;;;;;;12.32;3.25;;;23.90;65.00;;;;;;6213307;28;80467;-60
2023/10/21 00:12:53;;;;;;;10.48;4.13;;;23.90;65.00;;;;;;6203288;27;80857;-60
2023/10/21 00:15:54;;;;;;;13.80;4.55;;;23.90;64.70;;;;;;6219680;28;81468;-60
2023/10/21 00:18:54;;;;;;;15.23;3.92;;;23.90;64.80;;;;;;6219720;28;80509;-59
2023/10/21 00:21:55;;;;;;;12.68;4.05;;;23.90;64.60;;;;;;6221458;28;82047;-65
2023/10/21 00:24:55;;;;;;;11.38;4.28;;;23.90;64.60;;;;;;6224858;27;80640;-65
2023/10/21 00:27:56;;;;;;;15.02;4.40;;;24.00;64.60;;;;;;6226226;27;81797;-65
2023/10/21 00:30:56;;;;;;;13.98;3.47;;;24.00;65.40;;;;;;6210406;27;81738;-63
2023/10/21 00:33:57;;;;;;;15.20;4.43;;;23.90;64.60;;;;;;6227543;27;82006;-62
2023/10/21 00:36:57;;;;;;;12.02;3.95;;;24.00;65.30;;;;;;6227040;27;81585;-65
2023/10/21 00:39:57;;;;;;;11.90;3.53;;;24.00;64.80;;;;;;6218466;27;80204;-70
2023/10/21 00:42:58;;;;;;;11.75;3.45;;;24.00;64.70;;;;;;6223197;27;81508;-70
2023/10/21 00:45:58;;;;;;;10.35;3.13;;;24.00;64.70;;;;;;6208880;28;81056;-69
2023/10/21 00:48:59;;;;;;;10.63;3.72;;;24.00;64.90;;;;;;6217655;28;80472;-70
2023/10/21 00:52:00;;;;;;;9.70;3.35;;;24.00;64.90;;;;;;6219163;28;80631;-69
2023/10/21 00:55:00;;;;;;;17.38;4.28;;;24.00;65.00;;;;;;6228672;28;80351;-70
2023/10/21 00:58:01;;;;;;;8.68;3.30;;;24.00;65.10;;;;;;6229039;28;80862;-64
2023/10/21 01:01:02;;;;;;;10.02;3.60;;;24.00;65.00;;;;;;6212216;27;81778;-63
2023/10/21 01:04:02;;;;;;;9.88;3.58;;;23.90;65.20;;;;;;6204052;28;81544;-64
2023/10/21 01:07:03;;;;;;;10.13;3.47;;;24.00;65.30;;;;;;6210323;28;80936;-65
2023/10/21 01:10:04;;;;;;;7.20;3.10;;;24.00;65.20;;;;;;6226968;28;81151;-64
2023/10/21 01:13:04;;;;;;;11.55;3.30;;;24.00;65.30;;;;;;6205947;28;80449;-66
2023/10/21 01:16:05;;;;;;;7.82;2.90;;;24.00;65.30;;;;;;6203977;28;80600;-66
2023/10/21 01:19:09;;;;;;;11.50;2.90;;;24.00;65.30;;;;;;6204034;28;82662;-65
2023/10/21 01:22:10;;;;;;;5.32;2.65;;;24.00;65.40;;;;;;6215970;28;85772;-64
2023/10/21 01:25:11;;;;;;;10.63;2.92;;;23.90;65.60;;;;;;6225673;28;80285;-64
2023/10/21 01:28:12;;;;;;;6.97;2.75;;;24.00;65.60;;;;;;6216470;28;81529;-62
2023/10/21 01:31:12;;;;;;;9.85;2.60;;;24.00;65.50;;;;;;6225143;27;80275;-62
2023/10/21 01:34:13;;;;;;;7.70;2.78;;;24.00;65.70;;;;;;6225354;28;81679;-64
2023/10/21 01:37:13;;;;;;;5.88;2.85;;;24.00;65.50;;;;;;6207421;28;81820;-65
2023/10/21 01:40:14;;;;;;;5.80;2.65;;;24.00;66.20;;;;;;6226912;27;80977;-64
2023/10/21 01:43:14;;;;;;;6.00;2.80;;;24.00;65.50;;;;;;6227228;28;80552;-65
2023/10/21 01:46:15;;;;;;;4.55;2.22;;;24.00;65.50;;;;;;6203447;28;80944;-66
2023/10/21 01:49:16;;;;;;;7.13;2.47;;;24.00;65.40;;;;;;6210989;28;80407;-65
2023/10/21 01:52:16;;;;;;;5.10;2.38;;;24.00;65.60;;;;;;6207030;28;81177;-65
2023/10/21 01:55:17;;;;;;;8.35;2.80;;;24.00;65.40;;;;;;6203015;27;83333;-65
2023/10/21 01:58:18;;;;;;;8.70;2.63;;;24.00;65.30;;;;;;6220928;28;85019;-64
2023/10/21 02:01:18;;;;;;;6.10;2.85;;;24.00;65.20;;;;;;6218119;27;82084;-65
2023/10/21 02:04:19;;;;;;;7.57;2.33;;;24.00;65.00;;;;;;6224346;27;82987;-64
2023/10/21 02:07:19;;;;;;;6.93;2.58;;;24.00;64.70;;;;;;6224686;28;80335;-65
2023/10/21 02:10:20;;;;;;;11.20;3.35;;;24.00;64.90;;;;;;6228315;28;80975;-65
2023/10/21 02:13:20;;;;;;;7.55;2.67;;;24.00;64.80;;;;;;6230066;27;80521;-64
2023/10/21 02:16:21;;;;;;;11.50;3.00;;;23.90;64.70;;;;;;6228368;27;80878;-64
2023/10/21 02:19:21;;;;;;;9.05;3.33;;;23.90;64.60;;;;;;6224900;28;88388;-65
2023/10/21 02:22:22;;;;;;;9.88;2.88;;;23.90;64.60;;;;;;6221288;27;80536;-65
2023/10/21 02:25:22;;;;;;;8.43;3.42;;;24.00;64.70;;;;;;6221224;28;81321;-63
2023/10/21 02:28:23;;;;;;;14.23;3.75;;;23.90;64.60;;;;;;6215304;28;80470;-60
2023/10/21 02:31:24;;;;;;;9.73;3.38;;;23.90;64.90;;;;;;6223905;28;83508;-57
2023/10/21 02:34:24;;;;;;;11.65;3.65;;;23.90;64.80;;;;;;6221802;28;80469;-58
2023/10/21 02:37:25;;;;;;;12.68;3.00;;;24.00;65.00;;;;;;6221944;27;83486;-58
2023/10/21 02:40:25;;;;;;;11.60;3.60;;;24.00;64.80;;;;;;6226734;27;81602;-59
2023/10/21 02:43:27;;;;;;;8.88;2.92;;;23.90;64.90;;;;;;6224003;28;80278;-58
2023/10/21 02:46:27;;;;;;;7.97;2.97;;;23.90;64.90;;;;;;6225954;27;80340;-59
2023/10/21 02:49:28;;;;;;;13.20;3.05;;;24.00;65.00;;;;;;6224250;28;81761;-64
2023/10/21 02:52:29;;;;;;;11.73;3.58;;;24.00;64.80;;;;;;6226081;27;80778;-64
2023/10/21 02:55:30;;;;;;;24.75;3.42;;;23.90;65.00;;;;;;6216765;28;81338;-64
2023/10/21 02:58:30;;;;;;;9.55;3.33;;;24.00;64.80;;;;;;6202958;28;80423;-63
2023/10/21 03:01:30;;;;;;;12.77;3.67;;;24.00;64.70;;;;;;6211730;28;80726;-63
2023/10/21 03:04:32;;;;;;;13.68;3.92;;;24.00;64.80;;;;;;6205266;28;80493;-63
2023/10/21 03:07:32;;;;;;;11.45;3.78;;;24.00;64.90;;;;;;6214608;28;80905;-63
2023/10/21 03:10:33;;;;;;;18.48;3.42;;;23.90;64.70;;;;;;6201167;28;80968;-63
2023/10/21 03:13:33;;;;;;;11.70;3.85;;;24.00;64.60;;;;;;6220011;27;80470;-64
2023/10/21 03:16:34;;;;;;;7.78;3.42;;;23.90;64.60;;;;;;6223994;28;81392;-63
2023/10/21 03:19:34;;;;;;;14.63;3.45;;;23.90;64.60;;;;;;6219834;28;82140;-62
2023/10/21 03:22:36;;;;;;;15.30;3.78;;;23.90;64.80;;;;;;6213648;28;81250;-64
2023/10/21 03:25:36;;;;;;;15.15;4.28;;;23.90;64.70;;;;;;6223902;28;82623;-59
2023/10/21 03:28:38;;;;;;;11.35;3.08;;;24.00;64.70;;;;;;6225103;27;80269;-59
2023/10/21 03:31:39;;;;;;;10.38;3.47;;;23.90;64.50;;;;;;6220348;27;80871;-59
2023/10/21 03:34:39;;;;;;;13.00;3.08;;;23.90;64.60;;;;;;6210136;28;80590;-60
2023/10/21 03:37:40;;;;;;;16.48;3.80;;;23.90;64.60;;;;;;6207363;28;83685;-60
2023/10/21 03:40:41;;;;;;;10.10;4.28;;;23.90;64.30;;;;;;6210440;28;81207;-61
2023/10/21 03:43:42;;;;;;;8.07;3.33;;;24.00;64.30;;;;;;6212418;28;80964;-61
2023/10/21 03:46:42;;;;;;;9.80;3.83;;;24.00;64.60;;;;;;6226317;27;81212;-63
2023/10/21 03:49:43;;;;;;;9.38;3.38;;;23.90;64.30;;;;;;6222873;27;80854;-65
2023/10/21 03:52:43;;;;;;;12.75;4.00;;;24.00;64.70;;;;;;6236660;27;81735;-64
2023/10/21 03:55:44;;;;;;;15.40;4.45;;;24.00;64.50;;;;;;6224468;28;80649;-63
2023/10/21 03:58:44;;;;;;;12.20;3.55;;;24.00;64.50;;;;;;6214862;28;80974;-63
2023/10/21 04:01:45;;;;;;;10.95;3.30;;;24.00;64.50;;;;;;6217594;28;80649;-64
2023/10/21 04:04:46;;;;;;;13.38;3.63;;;24.00;64.50;;;;;;6218306;28;81437;-64
2023/10/21 04:07:46;;;;;;;12.88;3.67;;;24.00;64.90;;;;;;6206395;28;80401;-66
2023/10/21 04:10:47;;;;;;;10.90;2.97;;;24.00;64.80;;;;;;6230612;27;80455;-66
2023/10/21 04:13:47;;;;;;;11.35;3.85;;;23.90;64.60;;;;;;6212241;28;81388;-67
2023/10/21 04:16:49;;;;;;;14.68;3.90;;;23.90;64.50;;;;;;6223431;28;80395;-68
2023/10/21 04:19:49;;;;;;;10.38;3.42;;;24.00;64.60;;;;;;6216991;28;80498;-69
2023/10/21 04:22:50;;;;;;;15.40;3.05;;;24.00;64.60;;;;;;6229402;27;80435;-69
2023/10/21 04:25:50;;;;;;;9.48;2.88;;;24.00;64.90;;;;;;6227988;28;81011;-70
2023/10/21 04:28:50;;;;;;;15.88;4.05;;;24.00;64.90;;;;;;6228468;28;80050;-69
2023/10/21 04:31:52;;;;;;;13.50;3.35;;;24.00;64.70;;;;;;6226263;27;80758;-72
2023/10/21 04:34:52;;;;;;;11.18;3.53;;;24.00;64.70;;;;;;6228844;27;81221;-72
2023/10/21 04:37:53;;;;;;;14.02;4.20;;;24.00;64.50;;;;;;6244774;27;80404;-64
2023/10/21 04:40:54;;;;;;;8.98;4.43;;;24.00;64.60;;;;;;6233404;28;80519;-63
2023/10/21 04:43:55;;;;;;;14.35;4.57;;;23.90;64.40;;;;;;6204075;28;80497;-63
2023/10/21 04:46:55;;;;;;;12.00;4.43;;;23.90;64.40;;;;;;6204673;28;80563;-63
2023/10/21 04:49:56;;;;;;;11.98;3.88;;;23.90;64.40;;;;;;6211902;28;80859;-65
2023/10/21 04:52:57;;;;;;;17.25;4.22;;;23.90;64.40;;;;;;6203825;28;81092;-62
2023/10/21 04:55:57;;;;;;;15.25;4.55;;;24.00;64.40;;;;;;6203978;28;80963;-59
2023/10/21 04:58:58;;;;;;;16.40;4.18;;;24.00;64.40;;;;;;6205337;28;80935;-59
2023/10/21 05:01:59;;;;;;;15.40;3.95;;;24.00;64.10;;;;;;6207755;28;81072;-58
2023/10/21 05:05:00;;;;;;;13.07;3.78;;;23.90;64.50;;;;;;6224495;27;80541;-60
2023/10/21 05:08:00;;;;;;;16.50;4.90;;;24.00;64.70;;;;;;6197936;27;81537;-58
2023/10/21 05:11:01;;;;;;;12.23;3.80;;;24.00;64.80;;;;;;6212844;27;86437;-59
2023/10/21 05:14:01;;;;;;;15.05;4.30;;;24.00;64.70;;;;;;6213455;28;82868;-64
2023/10/21 05:17:02;;;;;;;9.90;3.83;;;24.00;64.40;;;;;;6219463;28;80203;-61
2023/10/21 05:20:03;;;;;;;14.40;3.92;;;24.00;64.50;;;;;;6222921;28;81466;-59
2023/10/21 05:23:03;;;;;;;13.48;3.63;;;24.00;64.20;;;;;;6221238;28;80903;-64
2023/10/21 05:26:04;;;;;;;14.73;3.58;;;24.00;64.30;;;;;;6218586;27;81382;-64
2023/10/21 05:29:04;;;;;;;13.93;3.30;;;24.00;64.10;;;;;;6221539;27;80719;-62
2023/10/21 05:32:05;;;;;;;12.35;3.92;;;24.00;64.60;;;;;;6219507;27;80590;-61
2023/10/21 05:35:08;;;;;;;10.65;3.25;;;24.00;65.50;;;;;;6211671;28;80442;-61
2023/10/21 05:38:09;;;;;;;13.10;3.53;;;24.00;65.70;;;;;;6226838;27;83402;-60
2023/10/21 05:41:10;;;;;;;16.65;3.20;;;24.10;67.00;;;;;;6226075;28;80386;-64
2023/10/21 05:44:11;;;;;;;16.40;3.38;;;24.00;66.80;;;;;;6226160;28;81164;-61
2023/10/21 05:47:11;;;;;;;14.88;4.05;;;24.10;66.60;;;;;;6222078;28;84473;-61
2023/10/21 05:50:12;;;;;;;19.75;4.97;;;23.90;65.30;;;;;;6227634;27;80805;-62
2023/10/21 05:53:13;;;;;;;27.60;6.05;;;23.80;65.60;;;;;;6225497;28;83852;-61
2023/10/21 05:56:15;;;;;;;21.38;5.03;;;23.60;64.90;;;;;;6224878;27;80726;-64
2023/10/21 05:59:16;;;;;;;18.50;4.55;;;23.80;65.20;;;;;;6224325;27;82763;-62
2023/10/21 06:02:16;;;;;;;16.08;5.07;;;23.80;65.10;;;;;;6224942;27;80869;-62
2023/10/21 06:05:17;;;;;;;20.02;4.75;;;23.90;64.80;;;;;;6222043;27;80873;-62
2023/10/21 06:08:17;;;;;;;23.38;5.65;;;23.80;64.40;;;;;;6223107;27;80833;-61
2023/10/21 06:11:17;;;;;;;21.15;4.95;;;23.70;65.10;;;;;;6222780;27;81447;-66
2023/10/21 06:14:18;;;;;;;27.48;6.47;;;23.70;65.00;;;;;;6202291;27;81329;-71
2023/10/21 06:17:18;;;;;;;26.35;5.30;;;23.60;63.80;;;;;;6214463;28;82376;-67
2023/10/21 06:20:19;;;;;;;21.75;5.47;;;23.50;63.80;;;;;;6198961;28;80762;-67
2023/10/21 06:23:19;;;;;;;24.30;4.43;;;23.40;63.10;;;;;;6212121;28;81239;-69
2023/10/21 06:26:20;;;;;;;18.58;4.93;;;23.50;63.10;;;;;;6214779;27;80689;-69
2023/10/21 06:29:23;;;;;;;13.40;4.60;;;23.40;62.70;;;;;;6205578;28;82977;-69
2023/10/21 06:32:24;;;;;;;24.25;5.97;;;23.40;63.00;;;;;;6215647;27;83015;-69
2023/10/21 06:35:24;;;;;;;18.73;4.47;;;23.40;63.10;;;;;;6205883;28;80273;-66
2023/10/21 06:38:25;;;;;;;21.25;4.55;;;23.40;63.70;;;;;;6213079;27;81331;-70
2023/10/21 06:41:25;;;;;;;21.35;4.85;;;23.60;63.80;;;;;;6219534;27;83636;-69
2023/10/21 06:44:26;;;;;;;26.80;5.53;;;23.50;63.50;;;;;;6208494;28;81643;-67
2023/10/21 06:47:26;;;;;;;17.73;4.70;;;23.50;62.90;;;;;;6221735;27;80921;-65
2023/10/21 06:50:27;;;;;;;19.98;4.30;;;23.60;63.20;;;;;;6220428;27;80560;-66
2023/10/21 06:53:27;;;;;;;18.02;4.25;;;23.70;63.30;;;;;;6210777;27;81881;-65
2023/10/21 06:56:28;;;;;;;15.05;4.75;;;23.80;63.30;;;;;;6208727;27;80631;-65
2023/10/21 06:59:28;;;;;;;20.77;5.70;;;23.90;63.80;;;;;;6208644;27;80786;-66
2023/10/21 07:02:29;;;;;;;23.95;7.00;;;23.90;64.30;;;;;;6200044;28;80615;-66
2023/10/21 07:05:29;;;;;;;23.30;6.93;;;23.90;64.10;;;;;;6198866;28;81036;-65
2023/10/21 07:08:30;;;;;;;23.20;6.43;;;24.00;63.90;;;;;;6205430;28;81647;-65
2023/10/21 07:11:30;;;;;;;31.10;7.82;;;23.90;63.90;;;;;;6205051;28;80987;-64
2023/10/21 07:14:31;;;;;;;29.80;7.35;;;23.90;63.80;;;;;;6208106;27;80372;-66
2023/10/21 07:17:32;;;;;;;19.02;7.25;;;23.80;64.20;;;;;;6204252;28;86579;-67
2023/10/21 07:20:33;;;;;;;25.85;6.35;;;23.60;64.00;;;;;;6202529;28;81564;-68
2023/10/21 07:23:33;;;;;;;26.38;5.50;;;23.50;64.20;;;;;;6203972;28;80955;-60
2023/10/21 07:26:34;;;;;;;25.65;5.57;;;23.40;64.30;;;;;;6196950;28;81563;-60
2023/10/21 07:29:34;;;;;;;27.13;5.93;;;23.40;64.30;;;;;;6191763;28;80777;-58
2023/10/21 07:32:35;;;;;;;21.80;4.75;;;23.40;64.40;;;;;;6209348;28;80575;-59
2023/10/21 07:35:35;;;;;;;21.33;4.50;;;23.40;63.80;;;;;;6217639;27;82128;-58
2023/10/21 07:38:36;;;;;;;19.88;4.63;;;23.30;63.70;;;;;;6207223;27;81949;-59
2023/10/21 07:41:37;;;;;;;27.27;5.55;;;23.30;64.00;;;;;;6221385;28;81490;-68
2023/10/21 07:44:37;;;;;;;18.70;5.68;;;23.30;63.50;;;;;;6223211;27;80519;-69
2023/10/21 07:47:37;;;;;;;19.17;4.38;;;23.30;63.70;;;;;;6218736;27;80492;-70
2023/10/21 07:50:38;;;;;;;27.77;4.90;;;23.20;63.60;;;;;;6231155;27;81885;-73
2023/10/21 07:53:39;;;;;;;23.85;4.93;;;23.40;63.90;;;;;;6236195;27;80914;-72
2023/10/21 07:56:39;;;;;;;17.85;4.85;;;23.40;64.10;;;;;;6221329;27;80606;-66
2023/10/21 07:59:39;;;;;;;18.73;4.60;;;23.50;63.90;;;;;;6222684;28;85303;-60
2023/10/21 08:02:40;;;;;;;24.60;5.93;;;23.40;64.00;;;;;;6221548;28;81110;-59
2023/10/21 08:05:41;;;;;;;19.88;4.93;;;23.40;63.90;;;;;;6213887;28;82625;-60
2023/10/21 08:08:42;;;;;;;21.15;4.53;;;23.60;64.60;;;;;;6227373;27;80671;-60
2023/10/21 08:11:43;;;;;;;14.00;4.40;;;23.60;64.40;;;;;;6222282;28;81384;-58
2023/10/21 08:14:44;;;;;;;20.00;4.40;;;23.80;64.30;;;;;;6212528;28;80864;-59
2023/10/21 08:17:44;;;;;;;18.05;3.72;;;23.80;64.20;;;;;;6224636;27;80446;-69
2023/10/21 08:20:45;;;;;;;13.57;3.97;;;23.90;64.10;;;;;;6216743;28;80631;-68
2023/10/21 08:23:45;;;;;;;22.80;5.13;;;24.00;64.10;;;;;;6223998;28;80435;-66
2023/10/21 08:26:46;;;;;;;22.55;4.60;;;24.00;64.10;;;;;;6217818;27;80806;-65
2023/10/21 08:29:46;;;;;;;20.98;5.28;;;24.00;63.80;;;;;;6211080;28;80141;-62
2023/10/21 08:32:48;;;;;;;19.67;5.18;;;24.00;64.10;;;;;;6192813;28;89507;-65
2023/10/21 08:35:48;;;;;;;22.63;5.60;;;24.00;64.20;;;;;;6212330;28;80717;-64
2023/10/21 08:38:49;;;;;;;23.25;4.63;;;24.10;64.30;;;;;;6225449;28;80531;-64
2023/10/21 08:41:49;;;;;;;18.63;5.65;;;24.10;64.40;;;;;;6205762;28;80657;-64
2023/10/21 08:44:50;;;;;;;18.80;4.68;;;24.10;64.20;;;;;;6194038;28;82390;-67
2023/10/21 08:47:50;;;;;;;23.27;5.18;;;24.10;64.20;;;;;;6219731;28;83064;-65
2023/10/21 08:50:51;;;;;;;20.95;5.25;;;24.10;64.40;;;;;;6227691;27;80568;-65
2023/10/21 08:53:52;;;;;;;28.08;5.68;;;24.00;64.60;;;;;;6223266;27;81268;-69
2023/10/21 08:56:52;;;;;;;28.63;6.93;;;24.00;64.70;;;;;;6222630;28;81804;-65
2023/10/21 08:59:53;;;;;;;16.13;4.57;;;24.00;64.80;;;;;;6225744;28;80368;-62
2023/10/21 09:02:55;;;;;;;25.67;6.05;;;24.00;64.60;;;;;;6228354;28;80632;-70
2023/10/21 09:05:56;;;;;;;27.55;5.35;;;24.00;64.70;;;;;;6224484;27;80274;-63
2023/10/21 09:08:57;;;;;;;17.55;5.20;;;24.00;64.60;;;;;;6221478;28;80948;-65
2023/10/21 09:11:58;;;;;;;20.52;5.43;;;24.00;64.60;;;;;;6200549;28;80834;-63
2023/10/21 09:15:02;;;;;;;21.73;6.10;;;24.10;64.70;;;;;;6217139;28;83545;-63
2023/10/21 09:18:03;;;;;;;28.07;6.43;;;24.10;64.70;;;;;;6222923;28;83152;-65
2023/10/21 09:21:03;;;;;;;23.50;6.47;;;24.00;65.20;;;;;;6211924;28;83010;-61
2023/10/21 09:24:04;;;;;;;21.05;6.15;;;24.10;65.80;;;;;;6227283;27;80738;-67
2023/10/21 09:27:06;;;;;;;21.90;6.43;;;24.10;66.20;;;;;;6225862;28;80896;-65
2023/10/21 09:30:06;;;;;;;23.15;6.72;;;24.00;65.60;;;;;;6208918;27;80941;-66
2023/10/21 09:33:08;;;;;;;26.67;7.53;;;24.00;65.70;;;;;;6216828;28;81573;-66
2023/10/21 09:36:09;;;;;;;19.35;5.40;;;24.00;65.40;;;;;;6215390;28;81050;-74
2023/10/21 09:39:09;;;;;;;25.95;5.88;;;24.00;65.30;;;;;;6224244;28;81446;-73
2023/10/21 09:42:10;;;;;;;16.08;5.72;;;24.10;64.90;;;;;;6244668;27;81085;-72
2023/10/21 09:45:10;;;;;;;19.35;6.03;;;24.10;64.60;;;;;;6222825;28;80543;-73
2023/10/21 09:48:11;;;;;;;17.58;5.20;;;24.10;64.40;;;;;;6204016;27;82303;-71
2023/10/21 09:51:12;;;;;;;16.13;5.63;;;24.10;64.60;;;;;;6224115;27;83118;-70
2023/10/21 09:54:13;;;;;;;22.83;5.47;;;24.10;64.60;;;;;;6213392;28;81114;-70
2023/10/21 09:57:14;;;;;;;24.30;5.93;;;24.00;64.40;;;;;;6233363;28;80492;-70
2023/10/21 10:00:17;;;;;;;25.67;5.63;;;24.10;63.90;;;;;;6218055;28;80359;-72
2023/10/21 10:03:19;;;;;;;19.98;5.38;;;24.10;63.80;;;;;;6218681;28;81753;-71
2023/10/21 10:06:20;;;;;;;27.63;5.15;;;24.00;63.80;;;;;;6231300;28;80897;-71
2023/10/21 10:09:22;;;;;;;24.45;5.22;;;24.10;63.60;;;;;;6216012;27;80461;-71
2023/10/21 10:12:23;;;;;;;18.75;5.50;;;24.10;63.50;;;;;;6225788;27;80921;-69
2023/10/21 10:15:23;;;;;;;18.25;5.53;;;24.20;63.40;;;;;;6222934;28;81059;-70
2023/10/21 10:18:25;;;;;;;24.48;4.63;;;24.20;63.80;;;;;;6232397;28;82854;-71
2023/10/21 10:21:26;;;;;;;16.55;5.57;;;24.20;64.00;;;;;;6220555;28;80497;-74
2023/10/21 10:24:28;;;;;;;13.85;4.68;;;24.10;64.20;;;;;;6221073;28;80777;-72
2023/10/21 10:27:28;;;;;;;19.42;5.45;;;24.10;64.10;;;;;;6228390;27;81415;-67
2023/10/21 10:30:32;;;;;;;19.13;4.63;;;24.20;64.00;;;;;;6225537;28;80251;-69
2023/10/21 10:33:33;;;;;;;14.65;5.00;;;24.30;64.00;;;;;;6228879;27;81210;-69
2023/10/21 10:36:34;;;;;;;16.58;4.32;;;24.40;64.40;;;;;;6227440;28;80822;-69
2023/10/21 10:39:35;;;;;;;19.52;5.30;;;24.40;64.60;;;;;;6224220;27;81664;-66
2023/10/21 10:42:36;;;;;;;16.52;4.95;;;24.40;64.50;;;;;;6228142;28;80777;-66
2023/10/21 10:45:37;;;;;;;20.50;5.50;;;24.50;64.40;;;;;;6225144;28;85912;-63
2023/10/21 10:48:39;;;;;;;19.83;5.40;;;24.60;64.20;;;;;;6196486;28;83998;-62
2023/10/21 10:51:39;;;;;;;23.40;6.15;;;24.60;64.10;;;;;;6188575;28;88990;-63
2023/10/21 10:54:40;;;;;;;17.63;4.65;;;24.80;64.10;;;;;;6233689;28;81419;-63
2023/10/21 10:57:42;;;;;;;16.42;5.72;;;24.90;64.00;;;;;;6203222;28;82305;-63
2023/10/21 11:00:43;;;;;;;35.63;9.55;;;25.00;64.80;;;;;;6226185;28;80779;-64
2023/10/21 11:03:43;;;;;;;32.83;10.10;;;25.10;65.30;;;;;;6231989;27;81097;-61
2023/10/21 11:06:45;;;;;;;38.30;11.15;;;25.30;65.50;;;;;;6216056;28;82800;-62
2023/10/21 11:09:45;;;;;;;37.20;11.45;;;25.30;65.10;;;;;;6223008;27;82900;-63
2023/10/21 11:12:46;;;;;;;43.38;12.18;;;25.30;65.00;;;;;;6229338;28;83093;-60
2023/10/21 11:15:51;;;;;;;33.42;10.40;;;25.30;65.00;;;;;;6218452;28;83278;-64
2023/10/21 11:18:52;;;;;;;27.63;8.30;;;25.30;64.40;;;;;;6217751;28;83691;-63
2023/10/21 11:21:52;;;;;;;28.35;8.77;;;25.40;63.60;;;;;;6214317;28;82900;-58
2023/10/21 11:24:53;;;;;;;25.42;7.82;;;25.40;63.80;;;;;;6216108;27;81058;-59
2023/10/21 11:27:53;;;;;;;20.88;6.38;;;25.40;63.40;;;;;;6217243;28;81603;-60
2023/10/21 11:30:54;;;;;;;19.90;6.45;;;25.40;63.60;;;;;;6226413;28;81114;-59
2023/10/21 11:33:54;;;;;;;21.38;5.57;;;25.40;62.80;;;;;;6221433;28;80376;-61
2023/10/21 11:36:55;;;;;;;16.17;4.93;;;25.50;61.90;;;;;;6212997;28;84893;-61
2023/10/21 11:39:55;;;;;;;24.42;5.68;;;25.50;62.10;;;;;;6201075;28;80887;-65
2023/10/21 11:42:56;;;;;;;12.18;4.10;;;25.60;61.50;;;;;;6196768;28;80580;-65
2023/10/21 11:45:57;;;;;;;10.25;3.88;;;25.60;61.00;;;;;;6196564;28;87479;-67
2023/10/21 11:48:58;;;;;;;7.57;3.55;;;25.70;60.80;;;;;;6203292;27;81030;-62
2023/10/21 11:51:58;;;;;;;11.20;3.85;;;25.70;60.40;;;;;;6197295;28;81437;-63
2023/10/21 12:11:50;;;;;;;14.00;3.47;;;25.50;60.00;;;;;;6201901;27;82115;-61
2023/10/21 12:18:28;;;;;;;11.02;3.42;;;25.30;60.40;;;;;;6209158;28;82560;-62
2023/10/21 12:31:53;;;;;;;8.25;2.33;;;25.20;60.20;;;;;;6223088;27;80504;-61
2023/10/21 12:41:37;;;;;;;20.65;4.25;;;25.20;60.20;;;;;;6193245;28;83055;-62
2023/10/21 12:44:44;;;;;;;14.95;3.78;;;25.10;60.10;;;;;;6224431;28;80926;-62
2023/10/21 12:47:44;;;;;;;11.80;4.00;;;25.20;60.70;;;;;;6201494;28;82609;-63
2023/10/21 12:50:45;;;;;;;11.40;3.90;;;25.30;61.50;;;;;;6229085;27;80445;-67
2023/10/21 12:53:45;;;;;;;9.90;3.30;;;25.40;60.90;;;;;;6227346;28;81962;-65
2023/10/21 12:56:46;;;;;;;12.32;3.28;;;25.50;60.60;;;;;;6216698;28;80502;-63
2023/10/21 12:59:46;;;;;;;14.70;3.15;;;25.50;60.10;;;;;;6216636;28;80838;-63
2023/10/21 13:02:47;;;;;;;13.60;3.35;;;25.60;59.60;;;;;;6205701;28;80893;-62
2023/10/21 13:05:48;;;;;;;15.07;3.58;;;25.70;59.30;;;;;;6212273;28;81311;-62
2023/10/21 13:08:51;;;;;;;11.02;2.63;;;25.70;59.00;;;;;;6216260;27;80805;-65
2023/10/21 13:11:52;;;;;;;7.85;2.55;;;25.80;58.50;;;;;;6210104;28;80938;-66
2023/10/21 13:14:52;;;;;;;12.20;2.97;;;25.70;58.00;;;;;;6210300;28;81238;-65
2023/10/21 13:17:53;;;;;;;8.77;2.63;;;25.70;57.60;;;;;;6205097;28;80631;-63
2023/10/21 13:20:54;;;;;;;6.68;2.42;;;25.80;57.30;;;;;;6227756;27;80441;-65
2023/10/21 13:23:55;;;;;;;15.10;2.15;;;25.70;56.80;;;;;;6213625;27;83584;-62
2023/10/21 13:26:55;;;;;;;6.82;2.55;;;25.70;57.20;;;;;;6211069;27;80463;-66
2023/10/21 13:29:56;;;;;;;10.90;2.65;;;25.70;57.10;;;;;;6226943;27;80514;-53
2023/10/21 13:32:56;;;;;;;17.05;2.75;;;25.70;56.90;;;;;;6214983;28;82770;-60
2023/10/21 13:35:57;;;;;;;6.93;2.53;;;25.70;56.80;;;;;;6242576;27;83186;-58
2023/10/21 13:38:57;;;;;;;12.02;3.20;;;25.70;56.90;;;;;;6226505;28;81552;-57
2023/10/21 13:42:00;;;;;;;13.90;3.45;;;25.80;57.10;;;;;;6205052;28;80084;-54
2023/10/21 13:45:05;;;;;;;5.22;2.85;;;25.70;56.80;;;;;;6214940;28;80559;-52
2023/10/21 13:48:08;;;;;;;9.90;2.30;;;25.80;57.00;;;;;;6219830;28;82155;-52
2023/10/21 13:51:09;;;;;;;13.82;2.58;;;25.70;56.70;;;;;;6205804;28;84422;-57
2023/10/21 13:54:10;;;;;;;5.38;1.95;;;25.60;56.60;;;;;;6205294;28;81915;-55
2023/10/21 13:57:11;;;;;;;13.65;3.15;;;25.60;56.60;;;;;;6216307;28;80702;-55
2023/10/21 14:03:31;;;;;;;10.43;3.05;;;25.60;57.10;;;;;;6217131;28;80529;-55
2023/10/21 14:06:31;;;;;;;6.43;1.83;;;25.60;56.90;;;;;;6220235;27;81059;-63
2023/10/21 14:09:32;;;;;;;14.43;2.95;;;25.60;57.10;;;;;;6209874;28;81086;-62
2023/10/21 14:12:33;;;;;;;9.25;3.00;;;25.60;57.40;;;;;;6231122;27;80878;-62
2023/10/21 14:15:36;;;;;;;7.88;2.20;;;25.60;57.20;;;;;;6219980;28;80273;-65
2023/10/21 14:18:36;;;;;;;8.88;3.42;;;25.50;57.40;;;;;;6220084;28;81287;-63
2023/10/21 14:21:37;;;;;;;12.00;3.05;;;25.50;57.80;;;;;;6222328;28;85117;-62
2023/10/21 14:24:39;;;;;;;10.65;3.65;;;25.50;57.40;;;;;;6222842;28;81104;-64
2023/10/21 14:27:39;;;;;;;7.88;2.95;;;25.40;57.70;;;;;;6221818;27;81600;-63
2023/10/21 14:30:43;;;;;;;9.35;3.67;;;25.40;57.90;;;;;;6222446;28;80570;-61
2023/10/21 14:33:43;;;;;;;31.48;5.15;;;25.30;58.30;;;;;;6222948;28;81337;-61
2023/10/21 14:36:45;;;;;;;15.95;4.30;;;25.30;58.90;;;;;;6228497;28;80680;-60
2023/10/21 14:39:45;;;;;;;20.95;4.03;;;25.30;59.40;;;;;;6220074;28;82839;-62
2023/10/21 14:42:46;;;;;;;12.52;4.00;;;25.20;59.40;;;;;;6222244;27;80610;-61
2023/10/21 14:45:47;;;;;;;14.27;3.97;;;25.20;59.50;;;;;;6218284;27;81644;-65
2023/10/21 14:48:49;;;;;;;15.05;3.40;;;25.20;59.90;;;;;;6232774;28;83523;-64
2023/10/21 14:51:49;;;;;;;19.48;4.35;;;25.20;60.00;;;;;;6215988;28;81620;-61
2023/10/21 14:54:50;;;;;;;11.57;3.25;;;25.10;60.30;;;;;;6212262;28;80776;-62
2023/10/21 14:57:50;;;;;;;16.33;4.32;;;24.90;61.30;;;;;;6223871;28;80339;-61
2023/10/21 15:00:51;;;;;;;11.00;4.35;;;24.80;61.50;;;;;;6211538;27;84198;-62
2023/10/21 15:03:51;;;;;;;15.30;4.85;;;24.80;61.10;;;;;;6224471;27;80523;-62
2023/10/21 15:06:52;;;;;;;11.13;3.85;;;24.90;60.90;;;;;;6223537;27;80698;-63
2023/10/21 15:09:52;;;;;;;12.15;3.95;;;24.90;60.70;;;;;;6234028;27;81534;-69
2023/10/21 15:12:53;;;;;;;8.85;4.38;;;25.00;60.70;;;;;;6237828;27;80304;-64
2023/10/21 15:15:53;;;;;;;13.77;5.75;;;24.90;60.80;;;;;;6226020;27;80407;-64
2023/10/21 15:18:54;;;;;;;18.25;5.32;;;24.90;61.00;;;;;;6224227;27;83038;-64
2023/10/21 15:21:55;;;;;;;13.25;5.18;;;24.80;60.90;;;;;;6223218;28;80702;-66
2023/10/21 15:24:56;;;;;;;14.45;5.63;;;24.70;61.40;;;;;;6235564;27;80560;-65
2023/10/21 15:27:56;;;;;;;13.95;5.40;;;24.50;61.60;;;;;;6233329;27;83134;-64
2023/10/21 15:30:57;;;;;;;14.07;5.32;;;24.60;61.90;;;;;;6225016;27;80502;-63
2023/10/21 15:33:57;;;;;;;13.43;6.13;;;24.60;62.00;;;;;;6224655;28;80752;-65
2023/10/21 15:36:58;;;;;;;15.88;6.72;;;24.60;61.80;;;;;;6224545;27;80235;-64
2023/10/21 15:40:00;;;;;;;17.27;6.30;;;24.60;61.60;;;;;;6239260;28;80595;-70
2023/10/21 15:43:00;;;;;;;12.88;5.13;;;24.60;61.50;;;;;;6212362;28;80528;-73
2023/10/21 15:46:02;;;;;;;20.58;6.82;;;24.60;61.60;;;;;;6217761;28;80642;-70
2023/10/21 15:49:04;;;;;;;16.92;7.40;;;24.50;61.70;;;;;;6209160;28;80608;-70
2023/10/21 15:52:04;;;;;;;13.93;6.97;;;24.50;61.70;;;;;;6203664;28;80677;-73
2023/10/21 15:55:04;;;;;;;12.90;6.75;;;24.50;61.90;;;;;;6220700;28;80490;-72
2023/10/21 15:58:05;;;;;;;14.70;6.97;;;24.40;62.50;;;;;;6230651;28;81934;-74
2023/10/21 16:01:06;;;;;;;19.48;8.60;;;24.30;62.90;;;;;;6217414;28;80899;-72
2023/10/21 16:04:06;;;;;;;17.05;7.57;;;24.30;62.90;;;;;;6228356;27;80903;-72
2023/10/21 16:07:07;;;;;;;18.63;9.40;;;24.30;63.10;;;;;;6201519;28;80999;-70
2023/10/21 16:10:08;;;;;;;18.80;8.90;;;24.30;63.40;;;;;;6224828;27;80512;-69